sensor_id;sensor_type;location;lat;lon;timestamp;pressure;altitude;pressure_sealevel;temperature;humidity
77333;BME280;66408;51.326;12.070;2023-05-15T00:00:19;100348.25;;;12.24;69.31
77333;BME280;66408;51.326;12.070;2023-05-15T00:02:46;100353.19;;;12.13;68.51
77333;BME280;66408;51.326;12.070;2023-05-15T00:05:14;100350.22;;;12.01;69.76
77333;BME280;66408;51.326;12.070;2023-05-15T00:07:41;100343.84;;;12.06;69.08
77333;BME280;66408;51.326;12.070;2023-05-15T00:10:08;100347.50;;;12.01;69.10
77333;BME280;66408;51.326;12.070;2023-05-15T00:12:34;100341.63;;;12.08;69.23
77333;BME280;66408;51.326;12.070;2023-05-15T00:15:02;100340.84;;;12.16;69.19
77333;BME280;66408;51.326;12.070;2023-05-15T00:17:28;100345.09;;;12.00;69.58
77333;BME280;66408;51.326;12.070;2023-05-15T00:19:55;100347.72;;;12.13;68.61
77333;BME280;66408;51.326;12.070;2023-05-15T00:22:24;100343.72;;;12.11;69.49
77333;BME280;66408;51.326;12.070;2023-05-15T00:24:51;100344.38;;;12.16;69.78
77333;BME280;66408;51.326;12.070;2023-05-15T00:27:18;100344.09;;;12.27;69.67
77333;BME280;66408;51.326;12.070;2023-05-15T00:29:44;100343.59;;;12.24;69.73
77333;BME280;66408;51.326;12.070;2023-05-15T00:32:11;100341.97;;;12.15;69.17
77333;BME280;66408;51.326;12.070;2023-05-15T00:34:37;100336.88;;;12.22;68.81
77333;BME280;66408;51.326;12.070;2023-05-15T00:37:04;100327.41;;;12.19;68.85
77333;BME280;66408;51.326;12.070;2023-05-15T00:39:34;100330.41;;;12.09;68.79
77333;BME280;66408;51.326;12.070;2023-05-15T00:42:03;100327.19;;;12.07;68.86
77333;BME280;66408;51.326;12.070;2023-05-15T00:44:30;100322.31;;;11.96;67.91
77333;BME280;66408;51.326;12.070;2023-05-15T00:46:58;100328.50;;;11.87;68.22
77333;BME280;66408;51.326;12.070;2023-05-15T00:49:25;100328.78;;;11.77;68.93
77333;BME280;66408;51.326;12.070;2023-05-15T00:51:58;100318.81;;;11.73;68.83
77333;BME280;66408;51.326;12.070;2023-05-15T00:54:27;100313.06;;;11.74;68.82
77333;BME280;66408;51.326;12.070;2023-05-15T00:56:58;100313.06;;;11.74;68.60
77333;BME280;66408;51.326;12.070;2023-05-15T00:59:26;100305.19;;;11.73;68.62
77333;BME280;66408;51.326;12.070;2023-05-15T01:01:53;100312.88;;;11.71;68.50
77333;BME280;66408;51.326;12.070;2023-05-15T01:04:20;100297.81;;;11.73;68.65
77333;BME280;66408;51.326;12.070;2023-05-15T01:06:47;100302.47;;;11.73;68.39
77333;BME280;66408;51.326;12.070;2023-05-15T01:09:14;100304.69;;;11.71;68.72
77333;BME280;66408;51.326;12.070;2023-05-15T01:11:41;100301.47;;;11.69;68.67
77333;BME280;66408;51.326;12.070;2023-05-15T01:14:08;100295.41;;;11.72;68.30
77333;BME280;66408;51.326;12.070;2023-05-15T01:16:35;100300.97;;;11.67;68.45
77333;BME280;66408;51.326;12.070;2023-05-15T01:19:02;100293.50;;;11.50;69.21
77333;BME280;66408;51.326;12.070;2023-05-15T01:24:32;100284.09;;;11.56;68.37
77333;BME280;66408;51.326;12.070;2023-05-15T01:27:24;100280.06;;;11.53;68.08
77333;BME280;66408;51.326;12.070;2023-05-15T01:30:14;100290.16;;;11.53;68.47
77333;BME280;66408;51.326;12.070;2023-05-15T01:32:46;100288.03;;;11.50;69.17
77333;BME280;66408;51.326;12.070;2023-05-15T01:40:53;100283.31;;;11.11;69.53
77333;BME280;66408;51.326;12.070;2023-05-15T01:43:23;100278.22;;;11.18;68.82
77333;BME280;66408;51.326;12.070;2023-05-15T01:45:53;100277.34;;;11.09;69.55
77333;BME280;66408;51.326;12.070;2023-05-15T01:48:21;100270.91;;;11.05;69.83
77333;BME280;66408;51.326;12.070;2023-05-15T01:50:48;100277.16;;;11.05;69.43
77333;BME280;66408;51.326;12.070;2023-05-15T01:53:17;100276.59;;;10.95;69.29
77333;BME280;66408;51.326;12.070;2023-05-15T01:55:46;100273.38;;;10.93;69.46
77333;BME280;66408;51.326;12.070;2023-05-15T01:58:14;100272.47;;;10.97;69.62
77333;BME280;66408;51.326;12.070;2023-05-15T02:00:42;100265.34;;;10.88;69.79
77333;BME280;66408;51.326;12.070;2023-05-15T02:03:09;100268.44;;;10.95;69.28
77333;BME280;66408;51.326;12.070;2023-05-15T02:05:37;100267.63;;;10.94;68.85
77333;BME280;66408;51.326;12.070;2023-05-15T02:08:04;100266.81;;;10.94;69.07
77333;BME280;66408;51.326;12.070;2023-05-15T02:10:32;100260.56;;;10.93;69.57
77333;BME280;66408;51.326;12.070;2023-05-15T02:12:59;100261.69;;;10.92;69.86
77333;BME280;66408;51.326;12.070;2023-05-15T02:15:27;100262.09;;;10.99;69.23
77333;BME280;66408;51.326;12.070;2023-05-15T02:17:54;100256.00;;;11.02;69.69
77333;BME280;66408;51.326;12.070;2023-05-15T02:20:21;100256.94;;;10.98;69.72
77333;BME280;66408;51.326;12.070;2023-05-15T02:22:48;100248.94;;;11.01;69.15
77333;BME280;66408;51.326;12.070;2023-05-15T02:25:14;100246.06;;;10.98;69.98
77333;BME280;66408;51.326;12.070;2023-05-15T02:27:55;100237.22;;;10.92;70.68
77333;BME280;66408;51.326;12.070;2023-05-15T02:30:27;100251.81;;;10.96;70.30
77333;BME280;66408;51.326;12.070;2023-05-15T02:35:48;100239.00;;;10.97;70.38
77333;BME280;66408;51.326;12.070;2023-05-15T02:38:36;100247.97;;;10.97;69.17
77333;BME280;66408;51.326;12.070;2023-05-15T02:41:05;100241.53;;;10.93;70.07
77333;BME280;66408;51.326;12.070;2023-05-15T02:43:34;100246.47;;;10.91;70.08
77333;BME280;66408;51.326;12.070;2023-05-15T02:46:02;100232.88;;;10.91;69.95
77333;BME280;66408;51.326;12.070;2023-05-15T02:48:30;100233.19;;;10.90;70.00
77333;BME280;66408;51.326;12.070;2023-05-15T02:50:57;100228.19;;;10.83;69.79
77333;BME280;66408;51.326;12.070;2023-05-15T02:53:23;100222.34;;;10.76;70.31
77333;BME280;66408;51.326;12.070;2023-05-15T02:55:50;100221.13;;;10.82;69.60
77333;BME280;66408;51.326;12.070;2023-05-15T02:58:17;100227.19;;;10.79;70.07
77333;BME280;66408;51.326;12.070;2023-05-15T03:00:43;100224.16;;;10.80;70.64
77333;BME280;66408;51.326;12.070;2023-05-15T03:03:10;100226.38;;;10.78;70.70
77333;BME280;66408;51.326;12.070;2023-05-15T03:05:36;100224.97;;;10.81;70.37
77333;BME280;66408;51.326;12.070;2023-05-15T03:08:04;100221.94;;;10.83;70.48
77333;BME280;66408;51.326;12.070;2023-05-15T03:10:30;100215.38;;;10.84;70.41
77333;BME280;66408;51.326;12.070;2023-05-15T03:12:57;100223.41;;;10.89;70.74
77333;BME280;66408;51.326;12.070;2023-05-15T03:15:23;100214.78;;;10.87;70.78
77333;BME280;66408;51.326;12.070;2023-05-15T03:17:50;100212.09;;;10.73;71.21
77333;BME280;66408;51.326;12.070;2023-05-15T03:20:17;100211.81;;;10.74;71.16
77333;BME280;66408;51.326;12.070;2023-05-15T03:22:44;100211.97;;;10.78;70.14
77333;BME280;66408;51.326;12.070;2023-05-15T03:25:10;100208.47;;;10.64;70.51
77333;BME280;66408;51.326;12.070;2023-05-15T03:27:37;100205.97;;;10.67;70.12
77333;BME280;66408;51.326;12.070;2023-05-15T03:30:04;100209.38;;;10.73;70.30
77333;BME280;66408;51.326;12.070;2023-05-15T03:32:31;100212.66;;;10.61;70.99
77333;BME280;66408;51.326;12.070;2023-05-15T03:34:57;100213.81;;;10.69;71.40
77333;BME280;66408;51.326;12.070;2023-05-15T03:37:24;100213.41;;;10.75;71.07
77333;BME280;66408;51.326;12.070;2023-05-15T03:39:50;100209.34;;;10.87;69.61
77333;BME280;66408;51.326;12.070;2023-05-15T03:42:17;100215.09;;;10.85;70.11
77333;BME280;66408;51.326;12.070;2023-05-15T03:44:49;100204.13;;;10.76;69.90
77333;BME280;66408;51.326;12.070;2023-05-15T03:47:16;100202.53;;;10.75;69.48
77333;BME280;66408;51.326;12.070;2023-05-15T03:49:42;100205.84;;;10.72;69.47
77333;BME280;66408;51.326;12.070;2023-05-15T03:52:09;100204.97;;;10.63;69.42
77333;BME280;66408;51.326;12.070;2023-05-15T03:54:35;100207.41;;;10.51;69.91
77333;BME280;66408;51.326;12.070;2023-05-15T03:57:05;100208.31;;;10.60;69.88
77333;BME280;66408;51.326;12.070;2023-05-15T03:59:32;100209.28;;;10.64;69.99
77333;BME280;66408;51.326;12.070;2023-05-15T04:01:58;100196.63;;;10.60;70.50
77333;BME280;66408;51.326;12.070;2023-05-15T04:04:30;100203.75;;;10.69;69.73
77333;BME280;66408;51.326;12.070;2023-05-15T04:06:56;100204.75;;;10.73;70.57
77333;BME280;66408;51.326;12.070;2023-05-15T04:09:23;100201.91;;;10.78;70.01
77333;BME280;66408;51.326;12.070;2023-05-15T04:11:50;100207.84;;;10.80;70.00
77333;BME280;66408;51.326;12.070;2023-05-15T04:14:16;100207.22;;;10.84;70.10
77333;BME280;66408;51.326;12.070;2023-05-15T04:16:42;100194.69;;;10.74;70.73
77333;BME280;66408;51.326;12.070;2023-05-15T04:19:09;100202.19;;;10.77;70.86
77333;BME280;66408;51.326;12.070;2023-05-15T04:21:36;100203.44;;;10.93;70.38
77333;BME280;66408;51.326;12.070;2023-05-15T04:24:02;100198.00;;;10.93;70.84
77333;BME280;66408;51.326;12.070;2023-05-15T04:26:29;100190.41;;;11.04;70.81
77333;BME280;66408;51.326;12.070;2023-05-15T04:28:56;100194.63;;;11.10;70.84
77333;BME280;66408;51.326;12.070;2023-05-15T04:31:30;100188.19;;;11.06;71.02
77333;BME280;66408;51.326;12.070;2023-05-15T04:33:57;100187.91;;;11.16;70.74
77333;BME280;66408;51.326;12.070;2023-05-15T04:36:23;100189.41;;;11.22;70.44
77333;BME280;66408;51.326;12.070;2023-05-15T04:38:50;100186.19;;;11.20;70.79
77333;BME280;66408;51.326;12.070;2023-05-15T04:41:17;100179.66;;;11.30;70.47
77333;BME280;66408;51.326;12.070;2023-05-15T04:43:43;100184.50;;;11.33;70.69
77333;BME280;66408;51.326;12.070;2023-05-15T04:46:10;100182.78;;;11.37;70.55
77333;BME280;66408;51.326;12.070;2023-05-15T04:48:37;100190.97;;;11.45;70.39
77333;BME280;66408;51.326;12.070;2023-05-15T04:51:03;100185.03;;;11.43;70.69
77333;BME280;66408;51.326;12.070;2023-05-15T04:53:30;100185.72;;;11.49;70.94
77333;BME280;66408;51.326;12.070;2023-05-15T04:55:56;100180.47;;;11.61;70.50
77333;BME280;66408;51.326;12.070;2023-05-15T04:58:23;100181.28;;;11.62;70.56
77333;BME280;66408;51.326;12.070;2023-05-15T05:00:49;100179.69;;;11.61;70.56
77333;BME280;66408;51.326;12.070;2023-05-15T05:03:15;100182.03;;;11.53;71.04
77333;BME280;66408;51.326;12.070;2023-05-15T05:05:42;100177.56;;;11.49;71.36
77333;BME280;66408;51.326;12.070;2023-05-15T05:08:08;100180.31;;;11.66;71.30
77333;BME280;66408;51.326;12.070;2023-05-15T05:10:35;100181.69;;;11.77;71.01
77333;BME280;66408;51.326;12.070;2023-05-15T05:13:01;100175.50;;;11.94;70.95
77333;BME280;66408;51.326;12.070;2023-05-15T05:15:28;100175.69;;;12.06;70.96
77333;BME280;66408;51.326;12.070;2023-05-15T05:17:54;100181.00;;;12.11;70.45
77333;BME280;66408;51.326;12.070;2023-05-15T05:20:21;100175.25;;;12.21;70.39
77333;BME280;66408;51.326;12.070;2023-05-15T05:22:48;100176.19;;;12.26;71.02
77333;BME280;66408;51.326;12.070;2023-05-15T05:25:14;100176.19;;;12.26;71.42
77333;BME280;66408;51.326;12.070;2023-05-15T05:27:41;100167.25;;;12.34;71.37
77333;BME280;66408;51.326;12.070;2023-05-15T05:30:08;100168.81;;;12.26;71.67
77333;BME280;66408;51.326;12.070;2023-05-15T05:32:35;100165.31;;;12.34;71.52
77333;BME280;66408;51.326;12.070;2023-05-15T05:35:01;100165.81;;;12.45;71.51
77333;BME280;66408;51.326;12.070;2023-05-15T05:37:29;100172.22;;;12.57;71.66
77333;BME280;66408;51.326;12.070;2023-05-15T05:39:55;100170.00;;;12.59;71.42
77333;BME280;66408;51.326;12.070;2023-05-15T05:42:22;100174.31;;;12.69;70.99
77333;BME280;66408;51.326;12.070;2023-05-15T05:44:48;100162.25;;;12.79;71.00
77333;BME280;66408;51.326;12.070;2023-05-15T05:47:15;100169.19;;;12.85;71.13
77333;BME280;66408;51.326;12.070;2023-05-15T05:49:41;100164.19;;;12.95;70.84
77333;BME280;66408;51.326;12.070;2023-05-15T05:52:08;100171.72;;;13.07;70.61
77333;BME280;66408;51.326;12.070;2023-05-15T05:54:35;100173.47;;;13.20;70.01
77333;BME280;66408;51.326;12.070;2023-05-15T05:57:02;100165.75;;;13.31;70.00
77333;BME280;66408;51.326;12.070;2023-05-15T05:59:29;100162.81;;;13.36;69.45
77333;BME280;66408;51.326;12.070;2023-05-15T06:01:56;100166.63;;;13.52;69.07
77333;BME280;66408;51.326;12.070;2023-05-15T06:04:22;100155.81;;;13.64;68.96
77333;BME280;66408;51.326;12.070;2023-05-15T06:06:49;100159.06;;;13.87;67.94
77333;BME280;66408;51.326;12.070;2023-05-15T06:09:15;100150.16;;;13.99;67.87
77333;BME280;66408;51.326;12.070;2023-05-15T06:11:43;100157.09;;;13.96;67.01
77333;BME280;66408;51.326;12.070;2023-05-15T06:14:10;100153.19;;;14.06;66.81
77333;BME280;66408;51.326;12.070;2023-05-15T06:16:37;100147.91;;;14.22;66.43
77333;BME280;66408;51.326;12.070;2023-05-15T06:19:03;100146.84;;;14.35;66.76
77333;BME280;66408;51.326;12.070;2023-05-15T06:21:30;100139.91;;;14.46;66.66
77333;BME280;66408;51.326;12.070;2023-05-15T06:23:57;100143.03;;;14.57;66.47
77333;BME280;66408;51.326;12.070;2023-05-15T06:26:23;100146.50;;;14.66;66.23
77333;BME280;66408;51.326;12.070;2023-05-15T06:28:50;100152.59;;;14.84;65.91
77333;BME280;66408;51.326;12.070;2023-05-15T06:31:17;100140.94;;;15.07;65.94
77333;BME280;66408;51.326;12.070;2023-05-15T06:33:43;100140.75;;;15.25;64.73
77333;BME280;66408;51.326;12.070;2023-05-15T06:36:10;100145.78;;;15.35;65.05
77333;BME280;66408;51.326;12.070;2023-05-15T06:38:36;100143.56;;;15.61;64.45
77333;BME280;66408;51.326;12.070;2023-05-15T06:41:03;100143.22;;;15.75;64.09
77333;BME280;66408;51.326;12.070;2023-05-15T06:43:29;100148.13;;;16.18;63.59
77333;BME280;66408;51.326;12.070;2023-05-15T06:45:56;100137.06;;;16.82;62.44
77333;BME280;66408;51.326;12.070;2023-05-15T06:48:22;100142.81;;;17.21;61.20
77333;BME280;66408;51.326;12.070;2023-05-15T06:50:50;100133.22;;;17.43;60.20
77333;BME280;66408;51.326;12.070;2023-05-15T06:53:16;100125.94;;;17.50;60.29
77333;BME280;66408;51.326;12.070;2023-05-15T06:55:43;100126.44;;;17.56;59.73
77333;BME280;66408;51.326;12.070;2023-05-15T06:58:10;100133.19;;;17.58;58.25
77333;BME280;66408;51.326;12.070;2023-05-15T07:00:37;100122.34;;;17.97;57.49
77333;BME280;66408;51.326;12.070;2023-05-15T07:03:03;100127.34;;;18.46;56.31
77333;BME280;66408;51.326;12.070;2023-05-15T07:05:30;100113.09;;;18.59;54.65
77333;BME280;66408;51.326;12.070;2023-05-15T07:07:56;100124.53;;;19.00;55.12
77333;BME280;66408;51.326;12.070;2023-05-15T07:10:23;100110.75;;;19.46;53.39
77333;BME280;66408;51.326;12.070;2023-05-15T07:12:50;100114.50;;;19.53;52.31
77333;BME280;66408;51.326;12.070;2023-05-15T07:15:16;100120.22;;;19.67;52.55
77333;BME280;66408;51.326;12.070;2023-05-15T07:17:43;100116.81;;;20.04;51.93
77333;BME280;66408;51.326;12.070;2023-05-15T07:20:09;100117.38;;;20.43;51.07
77333;BME280;66408;51.326;12.070;2023-05-15T07:22:37;100112.03;;;20.27;50.26
77333;BME280;66408;51.326;12.070;2023-05-15T07:25:21;100104.59;;;20.31;51.37
77333;BME280;66408;51.326;12.070;2023-05-15T07:27:48;100103.69;;;20.54;49.78
77333;BME280;66408;51.326;12.070;2023-05-15T07:30:15;100102.88;;;20.83;50.39
77333;BME280;66408;51.326;12.070;2023-05-15T07:32:41;100103.25;;;21.19;49.47
77333;BME280;66408;51.326;12.070;2023-05-15T07:35:08;100099.94;;;21.43;48.94
77333;BME280;66408;51.326;12.070;2023-05-15T07:37:36;100088.47;;;21.96;46.89
77333;BME280;66408;51.326;12.070;2023-05-15T07:40:03;100083.59;;;22.51;45.72
77333;BME280;66408;51.326;12.070;2023-05-15T07:42:30;100088.38;;;22.54;44.92
77333;BME280;66408;51.326;12.070;2023-05-15T07:44:56;100096.25;;;22.45;43.19
77333;BME280;66408;51.326;12.070;2023-05-15T07:47:23;100103.63;;;22.16;43.25
77333;BME280;66408;51.326;12.070;2023-05-15T07:49:50;100101.44;;;21.84;43.19
77333;BME280;66408;51.326;12.070;2023-05-15T07:52:16;100092.88;;;21.49;44.03
77333;BME280;66408;51.326;12.070;2023-05-15T07:54:43;100097.06;;;21.32;44.59
77333;BME280;66408;51.326;12.070;2023-05-15T07:57:09;100094.50;;;21.16;46.08
77333;BME280;66408;51.326;12.070;2023-05-15T07:59:36;100092.06;;;21.08;45.14
77333;BME280;66408;51.326;12.070;2023-05-15T08:02:02;100096.22;;;21.25;45.62
77333;BME280;66408;51.326;12.070;2023-05-15T08:04:29;100086.97;;;21.50;45.36
77333;BME280;66408;51.326;12.070;2023-05-15T08:06:55;100083.56;;;21.71;43.76
77333;BME280;66408;51.326;12.070;2023-05-15T08:09:22;100089.13;;;21.75;44.40
77333;BME280;66408;51.326;12.070;2023-05-15T08:11:49;100085.97;;;21.80;44.30
77333;BME280;66408;51.326;12.070;2023-05-15T08:14:15;100089.97;;;21.90;44.57
77333;BME280;66408;51.326;12.070;2023-05-15T08:16:42;100085.03;;;22.13;43.12
77333;BME280;66408;51.326;12.070;2023-05-15T08:19:08;100071.22;;;22.27;41.70
77333;BME280;66408;51.326;12.070;2023-05-15T08:21:35;100078.13;;;22.62;42.20
77333;BME280;66408;51.326;12.070;2023-05-15T08:24:02;100076.25;;;22.98;41.04
77333;BME280;66408;51.326;12.070;2023-05-15T08:26:28;100077.47;;;23.36;41.65
77333;BME280;66408;51.326;12.070;2023-05-15T08:28:55;100062.03;;;23.59;40.91
77333;BME280;66408;51.326;12.070;2023-05-15T08:31:22;100068.34;;;23.81;41.17
77333;BME280;66408;51.326;12.070;2023-05-15T08:33:49;100064.72;;;24.06;39.88
77333;BME280;66408;51.326;12.070;2023-05-15T08:36:15;100057.53;;;24.19;39.32
77333;BME280;66408;51.326;12.070;2023-05-15T08:38:44;100069.38;;;24.44;38.98
77333;BME280;66408;51.326;12.070;2023-05-15T08:41:20;100055.88;;;24.43;38.34
77333;BME280;66408;51.326;12.070;2023-05-15T08:44:07;100060.13;;;24.65;37.54
77333;BME280;66408;51.326;12.070;2023-05-15T08:46:34;100058.00;;;24.90;37.29
77333;BME280;66408;51.326;12.070;2023-05-15T08:49:10;100061.44;;;25.16;35.95
77333;BME280;66408;51.326;12.070;2023-05-15T08:51:39;100060.53;;;25.26;36.48
77333;BME280;66408;51.326;12.070;2023-05-15T08:54:08;100048.97;;;25.34;35.69
77333;BME280;66408;51.326;12.070;2023-05-15T08:56:35;100050.81;;;25.48;34.98
77333;BME280;66408;51.326;12.070;2023-05-15T08:59:02;100047.34;;;25.82;34.62
77333;BME280;66408;51.326;12.070;2023-05-15T09:01:29;100038.31;;;26.08;33.20
77333;BME280;66408;51.326;12.070;2023-05-15T09:03:55;100036.47;;;26.28;32.70
77333;BME280;66408;51.326;12.070;2023-05-15T09:06:23;100032.31;;;26.43;31.92
77333;BME280;66408;51.326;12.070;2023-05-15T09:08:52;100022.09;;;26.87;31.26
77333;BME280;66408;51.326;12.070;2023-05-15T09:11:23;100024.00;;;27.21;31.05
77333;BME280;66408;51.326;12.070;2023-05-15T09:13:49;100018.97;;;27.59;29.48
77333;BME280;66408;51.326;12.070;2023-05-15T09:16:16;100015.56;;;28.10;29.98
77333;BME280;66408;51.326;12.070;2023-05-15T09:18:43;100020.97;;;28.01;27.62
77333;BME280;66408;51.326;12.070;2023-05-15T09:21:27;100014.06;;;27.86;29.22
77333;BME280;66408;51.326;12.070;2023-05-15T09:23:56;100011.19;;;27.23;29.14
77333;BME280;66408;51.326;12.070;2023-05-15T09:26:41;100020.03;;;26.37;30.59
77333;BME280;66408;51.326;12.070;2023-05-15T09:29:07;100015.91;;;25.81;31.39
77333;BME280;66408;51.326;12.070;2023-05-15T09:31:34;100024.44;;;25.15;32.05
77333;BME280;66408;51.326;12.070;2023-05-15T09:34:01;100018.53;;;24.44;33.50
77333;BME280;66408;51.326;12.070;2023-05-15T09:36:30;100019.13;;;23.96;35.23
77333;BME280;66408;51.326;12.070;2023-05-15T09:38:59;100013.63;;;23.39;36.81
77333;BME280;66408;51.326;12.070;2023-05-15T09:41:26;100015.22;;;23.01;36.36
77333;BME280;66408;51.326;12.070;2023-05-15T09:43:54;100017.56;;;22.78;36.58
77333;BME280;66408;51.326;12.070;2023-05-15T09:46:22;100014.75;;;22.60;36.68
77333;BME280;66408;51.326;12.070;2023-05-15T09:48:53;100013.88;;;22.38;38.24
77333;BME280;66408;51.326;12.070;2023-05-15T09:51:20;100014.69;;;22.35;37.71
77333;BME280;66408;51.326;12.070;2023-05-15T09:53:48;100017.06;;;22.33;38.07
77333;BME280;66408;51.326;12.070;2023-05-15T09:56:16;100020.16;;;22.21;37.84
77333;BME280;66408;51.326;12.070;2023-05-15T09:58:56;100015.78;;;22.13;38.25
77333;BME280;66408;51.326;12.070;2023-05-15T10:01:24;100014.94;;;22.02;37.62
77333;BME280;66408;51.326;12.070;2023-05-15T10:03:58;100010.50;;;21.90;37.08
77333;BME280;66408;51.326;12.070;2023-05-15T10:06:26;100010.91;;;21.92;37.75
77333;BME280;66408;51.326;12.070;2023-05-15T10:08:53;100016.09;;;22.01;38.56
77333;BME280;66408;51.326;12.070;2023-05-15T10:11:20;100009.38;;;21.98;38.14
77333;BME280;66408;51.326;12.070;2023-05-15T10:13:48;100011.81;;;22.14;38.45
77333;BME280;66408;51.326;12.070;2023-05-15T10:16:18;100007.91;;;22.26;36.76
77333;BME280;66408;51.326;12.070;2023-05-15T10:18:46;100001.19;;;22.27;37.21
77333;BME280;66408;51.326;12.070;2023-05-15T10:21:14;100016.81;;;22.91;35.72
77333;BME280;66408;51.326;12.070;2023-05-15T10:23:44;100008.41;;;23.91;33.73
77333;BME280;66408;51.326;12.070;2023-05-15T10:26:32;99995.13;;;24.38;32.21
77333;BME280;66408;51.326;12.070;2023-05-15T10:29:00;100005.09;;;24.35;32.52
77333;BME280;66408;51.326;12.070;2023-05-15T10:31:28;99999.69;;;23.89;32.59
77333;BME280;66408;51.326;12.070;2023-05-15T10:33:55;99994.22;;;23.60;33.11
77333;BME280;66408;51.326;12.070;2023-05-15T10:36:23;99995.41;;;23.59;34.16
77333;BME280;66408;51.326;12.070;2023-05-15T10:38:50;99998.47;;;23.97;34.27
77333;BME280;66408;51.326;12.070;2023-05-15T10:41:19;99987.78;;;23.95;32.66
77333;BME280;66408;51.326;12.070;2023-05-15T10:43:48;99991.75;;;23.91;32.98
77333;BME280;66408;51.326;12.070;2023-05-15T10:46:15;99990.03;;;24.22;32.29
77333;BME280;66408;51.326;12.070;2023-05-15T10:48:42;99984.31;;;25.13;32.08
77333;BME280;66408;51.326;12.070;2023-05-15T10:51:16;99966.47;;;26.19;30.75
77333;BME280;66408;51.326;12.070;2023-05-15T10:53:44;99975.59;;;27.07;28.68
77333;BME280;66408;51.326;12.070;2023-05-15T10:56:13;99974.97;;;27.20;28.78
77333;BME280;66408;51.326;12.070;2023-05-15T10:58:43;99971.25;;;26.76;30.15
77333;BME280;66408;51.326;12.070;2023-05-15T11:01:29;99976.38;;;26.24;30.96
77333;BME280;66408;51.326;12.070;2023-05-15T11:06:39;99977.47;;;25.65;32.35
77333;BME280;66408;51.326;12.070;2023-05-15T11:11:57;99977.56;;;24.55;32.79
77333;BME280;66408;51.326;12.070;2023-05-15T11:14:26;99966.22;;;24.21;33.90
77333;BME280;66408;51.326;12.070;2023-05-15T11:25:01;99961.06;;;24.26;33.69
77333;BME280;66408;51.326;12.070;2023-05-15T11:27:37;99951.34;;;24.56;34.85
77333;BME280;66408;51.326;12.070;2023-05-15T11:35:27;99952.00;;;24.74;34.32
77333;BME280;66408;51.326;12.070;2023-05-15T11:40:28;99942.00;;;24.25;34.86
77333;BME280;66408;51.326;12.070;2023-05-15T11:43:14;99946.44;;;24.05;35.90
77333;BME280;66408;51.326;12.070;2023-05-15T11:45:45;99946.56;;;23.80;36.27
77333;BME280;66408;51.326;12.070;2023-05-15T11:48:14;99948.97;;;23.49;35.91
77333;BME280;66408;51.326;12.070;2023-05-15T11:50:41;99951.03;;;23.35;36.83
77333;BME280;66408;51.326;12.070;2023-05-15T11:53:09;99954.59;;;23.21;37.30
77333;BME280;66408;51.326;12.070;2023-05-15T11:55:38;99947.06;;;23.14;36.35
77333;BME280;66408;51.326;12.070;2023-05-15T11:58:10;99948.25;;;23.17;36.01
77333;BME280;66408;51.326;12.070;2023-05-15T12:00:37;99951.84;;;23.21;37.00
77333;BME280;66408;51.326;12.070;2023-05-15T12:03:04;99942.69;;;23.31;37.68
77333;BME280;66408;51.326;12.070;2023-05-15T12:05:31;99945.88;;;23.29;36.54
77333;BME280;66408;51.326;12.070;2023-05-15T12:07:57;99947.84;;;23.33;36.73
77333;BME280;66408;51.326;12.070;2023-05-15T12:10:23;99953.41;;;23.33;35.49
77333;BME280;66408;51.326;12.070;2023-05-15T12:12:50;99949.00;;;23.39;35.38
77333;BME280;66408;51.326;12.070;2023-05-15T12:15:17;99947.03;;;23.46;34.86
77333;BME280;66408;51.326;12.070;2023-05-15T12:17:44;99950.59;;;23.43;34.16
77333;BME280;66408;51.326;12.070;2023-05-15T12:20:15;99945.47;;;23.17;33.40
77333;BME280;66408;51.326;12.070;2023-05-15T12:22:42;99954.22;;;23.19;34.52
77333;BME280;66408;51.326;12.070;2023-05-15T12:25:11;99939.53;;;23.22;34.35
77333;BME280;66408;51.326;12.070;2023-05-15T12:27:38;99930.41;;;23.32;35.18
77333;BME280;66408;51.326;12.070;2023-05-15T12:30:06;99940.31;;;23.33;35.26
77333;BME280;66408;51.326;12.070;2023-05-15T12:32:34;99949.00;;;23.46;35.42
77333;BME280;66408;51.326;12.070;2023-05-15T12:35:01;99935.09;;;23.63;34.59
77333;BME280;66408;51.326;12.070;2023-05-15T12:37:31;99935.00;;;23.92;34.53
77333;BME280;66408;51.326;12.070;2023-05-15T12:40:03;99924.50;;;24.31;35.02
77333;BME280;66408;51.326;12.070;2023-05-15T12:42:42;99930.13;;;24.80;33.12
77333;BME280;66408;51.326;12.070;2023-05-15T12:45:13;99929.63;;;24.95;32.79
77333;BME280;66408;51.326;12.070;2023-05-15T12:47:45;99927.72;;;25.26;31.37
77333;BME280;66408;51.326;12.070;2023-05-15T12:50:16;99924.25;;;25.90;31.05
77333;BME280;66408;51.326;12.070;2023-05-15T12:52:54;99916.81;;;26.41;29.96
77333;BME280;66408;51.326;12.070;2023-05-15T12:55:26;99909.41;;;26.81;30.01
77333;BME280;66408;51.326;12.070;2023-05-15T12:57:55;99902.06;;;27.14;29.88
77333;BME280;66408;51.326;12.070;2023-05-15T13:00:24;99911.47;;;27.24;28.92
77333;BME280;66408;51.326;12.070;2023-05-15T13:02:52;99918.38;;;26.92;29.44
77333;BME280;66408;51.326;12.070;2023-05-15T13:05:21;99918.44;;;26.38;29.63
77333;BME280;66408;51.326;12.070;2023-05-15T13:07:49;99915.81;;;25.60;30.50
77333;BME280;66408;51.326;12.070;2023-05-15T13:10:23;99911.97;;;25.13;31.57
77333;BME280;66408;51.326;12.070;2023-05-15T13:12:52;99910.75;;;25.51;31.70
77333;BME280;66408;51.326;12.070;2023-05-15T13:17:58;99896.41;;;26.17;31.08
77333;BME280;66408;51.326;12.070;2023-05-15T13:20:33;99896.25;;;26.31;29.57
77333;BME280;66408;51.326;12.070;2023-05-15T13:23:00;99892.13;;;26.09;29.54